Time;durP1;ratioP1;P1;durP2;ratioP2;P2;SDS_P1;SDS_P2;PMS_P1;PMS_P2;Temp;Humidity;BMP_temperature;BMP_pressure;BME280_temperature;BME280_humidity;BME280_pressure;Samples;Min_cycle;Max_cycle;Signal;HPM_P1;HPM_P2
2021/03/23 00:01:00;;;;;;;4.13;1.90;;;5.80;99.90;;;;;;12369505;28;20457;-42
2021/03/23 00:07:09;;;;;;;4.68;1.73;;;5.90;99.90;;;;;;12365851;28;20065;-42
2021/03/23 00:13:11;;;;;;;5.25;1.88;;;5.90;99.90;;;;;;12364355;28;20080;-42
2021/03/23 00:19:14;;;;;;;4.70;1.83;;;5.90;99.90;;;;;;12369296;28;20049;-42
2021/03/23 00:25:16;;;;;;;5.80;1.80;;;5.80;99.90;;;;;;12363413;28;20061;-41
2021/03/23 00:31:19;;;;;;;4.70;1.88;;;5.90;99.90;;;;;;12365894;28;20137;-41
2021/03/23 00:37:30;;;;;;;4.82;1.60;;;6.00;99.90;;;;;;12370772;28;20077;-42
2021/03/23 00:43:32;;;;;;;4.05;1.50;;;5.90;99.90;;;;;;12371412;28;20082;-42
2021/03/23 00:49:33;;;;;;;8.05;1.70;;;5.80;99.90;;;;;;12367321;28;20064;-43
2021/03/23 00:55:35;;;;;;;3.47;1.70;;;5.90;99.90;;;;;;12374346;28;20360;-41
2021/03/23 01:01:36;;;;;;;7.15;2.08;;;5.90;99.90;;;;;;12375422;28;20058;-41
2021/03/23 01:07:55;;;;;;;8.68;2.40;;;5.70;99.90;;;;;;12372506;28;20054;-42
2021/03/23 01:13:57;;;;;;;7.05;2.10;;;5.80;99.90;;;;;;12380011;28;20446;-43
2021/03/23 01:19:58;;;;;;;3.90;1.85;;;5.80;99.90;;;;;;12382749;28;20478;-42
2021/03/23 01:26:00;;;;;;;5.38;2.15;;;5.90;99.90;;;;;;12381149;28;20391;-43
2021/03/23 01:32:01;;;;;;;4.75;1.98;;;5.80;99.90;;;;;;12372310;28;20414;-41
2021/03/23 01:38:17;;;;;;;6.55;1.70;;;5.70;99.90;;;;;;12382895;28;20153;-42
2021/03/23 01:44:18;;;;;;;6.15;2.35;;;5.80;99.90;;;;;;12374706;28;20866;-42
2021/03/23 01:50:21;;;;;;;7.00;1.98;;;5.60;99.90;;;;;;12379184;28;20054;-41
2021/03/23 01:56:22;;;;;;;8.57;1.70;;;5.60;99.90;;;;;;12381238;28;20058;-41
2021/03/23 02:02:29;;;;;;;5.30;1.80;;;5.70;99.90;;;;;;12379879;28;20062;-42
2021/03/23 02:08:41;;;;;;;4.57;1.63;;;5.80;99.90;;;;;;12370330;28;20081;-41
2021/03/23 02:14:45;;;;;;;3.97;1.85;;;5.70;99.90;;;;;;12372689;28;20041;-43
2021/03/23 02:20:56;;;;;;;;;;;5.60;99.90;;;;;;12377371;28;20073;-42
2021/03/23 02:26:57;;;;;;;7.30;2.08;;;5.70;99.90;;;;;;12380234;28;20021;-43
2021/03/23 02:32:58;;;;;;;5.90;1.80;;;5.60;99.90;;;;;;12370401;28;20057;-44
2021/03/23 02:39:11;;;;;;;8.10;2.00;;;5.50;99.90;;;;;;12371842;28;20058;-42
2021/03/23 02:45:13;;;;;;;5.18;1.98;;;5.50;99.90;;;;;;12374562;28;20062;-41
2021/03/23 02:51:16;;;;;;;7.75;2.30;;;5.50;99.90;;;;;;12374165;28;20699;-42
2021/03/23 02:57:18;;;;;;;9.32;2.35;;;5.60;99.90;;;;;;12378142;28;20058;-43
2021/03/23 03:03:19;;;;;;;8.90;2.67;;;5.70;99.90;;;;;;12371793;28;20061;-41
2021/03/23 03:09:26;;;;;;;6.03;2.80;;;5.70;99.90;;;;;;12370978;28;20153;-42
2021/03/23 03:15:29;;;;;;;7.82;3.25;;;5.70;99.90;;;;;;12370720;28;20058;-41
2021/03/23 03:21:31;;;;;;;8.43;3.63;;;5.50;99.90;;;;;;12372255;28;20050;-42
2021/03/23 03:27:32;;;;;;;8.20;3.97;;;5.70;99.90;;;;;;12361317;28;20050;-43
2021/03/23 03:33:33;;;;;;;7.50;4.38;;;5.60;99.90;;;;;;12372929;28;20141;-41
2021/03/23 03:39:49;;;;;;;8.13;4.53;;;5.60;99.90;;;;;;12373835;28;20565;-42
2021/03/23 03:45:50;;;;;;;9.23;4.63;;;5.60;99.90;;;;;;12367227;28;20057;-42
2021/03/23 03:51:52;;;;;;;10.05;4.78;;;5.60;99.90;;;;;;12372159;28;20107;-41
2021/03/23 03:57:53;;;;;;;7.30;4.78;;;5.60;99.90;;;;;;12378253;28;20085;-41
2021/03/23 04:03:54;;;;;;;9.57;4.63;;;5.60;99.90;;;;;;12377446;28;20148;-42
2021/03/23 04:10:11;;;;;;;11.02;4.50;;;5.60;99.90;;;;;;12370381;28;20050;-43
2021/03/23 04:16:12;;;;;;;5.80;3.72;;;5.60;99.90;;;;;;12370243;28;20056;-41
2021/03/23 04:22:14;;;;;;;8.13;4.03;;;5.50;99.90;;;;;;12365069;28;20046;-41
2021/03/23 04:28:16;;;;;;;5.32;3.20;;;5.60;99.90;;;;;;12371636;28;20215;-41
2021/03/23 04:34:18;;;;;;;6.53;3.13;;;5.60;99.90;;;;;;12372618;28;20348;-41
2021/03/23 04:40:36;;;;;;;5.38;2.88;;;5.60;99.90;;;;;;12377750;28;20729;-43
2021/03/23 04:46:38;;;;;;;7.20;2.88;;;5.60;99.90;;;;;;12369916;28;20084;-41
2021/03/23 04:52:39;;;;;;;10.18;3.72;;;5.50;99.90;;;;;;12374984;28;20050;-43
2021/03/23 04:58:40;;;;;;;5.63;3.10;;;5.50;99.90;;;;;;12379907;28;20061;-41
2021/03/23 05:04:42;;;;;;;5.05;2.88;;;5.50;99.90;;;;;;12375482;28;20047;-42
2021/03/23 05:10:57;;;;;;;4.63;2.63;;;5.60;99.90;;;;;;12375985;28;20768;-43
2021/03/23 05:16:59;;;;;;;5.15;2.97;;;5.50;99.90;;;;;;12372007;28;20055;-41
2021/03/23 05:23:00;;;;;;;4.60;2.90;;;5.50;99.90;;;;;;12371170;28;20446;-42
2021/03/23 05:29:02;;;;;;;5.45;2.40;;;5.30;99.90;;;;;;12373700;28;20076;-41
2021/03/23 05:35:05;;;;;;;7.35;3.25;;;5.40;99.90;;;;;;12370400;28;20172;-41
2021/03/23 05:41:32;;;;;;;6.78;2.90;;;5.50;99.90;;;;;;12372662;28;20062;-41
2021/03/23 05:47:37;;;;;;;6.28;2.78;;;5.30;99.90;;;;;;12369463;28;20418;-41
2021/03/23 05:53:44;;;;;;;4.13;2.50;;;5.30;99.90;;;;;;12378155;28;20045;-41
2021/03/23 06:00:17;;;;;;;6.93;2.72;;;5.20;99.90;;;;;;12375564;28;20053;-42
2021/03/23 06:06:36;;;;;;;4.82;2.50;;;5.20;99.90;;;;;;12373258;28;20080;-41
2021/03/23 06:12:45;;;;;;;6.90;2.88;;;5.10;99.90;;;;;;12373415;28;20153;-41
2021/03/23 06:18:51;;;;;;;5.45;3.03;;;5.20;99.90;;;;;;12380819;28;21455;-41
2021/03/23 06:25:25;;;;;;;6.38;3.80;;;5.20;99.90;;;;;;12374454;28;20061;-41
2021/03/23 06:31:58;;;;;;;5.75;3.08;;;5.10;99.90;;;;;;12371412;28;20054;-41
2021/03/23 06:38:03;;;;;;;4.25;2.70;;;5.10;99.90;;;;;;12377499;28;20129;-42
2021/03/23 06:44:13;;;;;;;;;;;5.10;99.90;;;;;;12370912;28;20371;-43
2021/03/23 06:50:35;;;;;;;8.70;3.70;;;5.20;99.90;;;;;;12370012;28;19926;-42
2021/03/23 06:56:36;;;;;;;7.20;3.25;;;5.20;99.90;;;;;;12371635;28;20145;-42
2021/03/23 07:02:43;;;;;;;7.78;3.80;;;5.30;99.90;;;;;;12366086;28;20734;-42
2021/03/23 07:09:16;;;;;;;7.97;4.50;;;5.40;99.90;;;;;;12372255;28;20119;-41
2021/03/23 07:15:30;;;;;;;8.45;3.95;;;5.50;99.90;;;;;;12369090;28;20103;-45
2021/03/23 07:21:49;;;;;;;7.10;4.30;;;5.60;99.90;;;;;;12370014;28;20705;-41
2021/03/23 07:28:24;;;;;;;8.20;4.40;;;5.60;99.90;;;;;;12375926;28;20050;-43
2021/03/23 07:34:36;;;;;;;10.75;5.03;;;5.80;99.90;;;;;;12366183;28;20049;-43
2021/03/23 07:40:47;;;;;;;8.88;5.57;;;5.80;99.90;;;;;;12365811;28;20084;-42
2021/03/23 07:46:54;;;;;;;10.95;5.38;;;5.80;99.90;;;;;;12376836;28;20066;-42
2021/03/23 07:53:12;;;;;;;9.15;5.78;;;5.90;99.90;;;;;;12368293;28;20065;-44
2021/03/23 07:59:43;;;;;;;9.10;5.43;;;5.90;99.90;;;;;;12371765;28;20062;-42
2021/03/23 08:05:55;;;;;;;8.80;5.55;;;6.10;99.90;;;;;;12364841;28;20050;-42
2021/03/23 08:12:22;;;;;;;8.90;4.85;;;6.10;99.90;;;;;;12360053;28;20111;-42
2021/03/23 08:18:55;;;;;;;9.23;5.72;;;6.30;99.90;;;;;;12370835;28;20062;-42
2021/03/23 08:25:20;;;;;;;9.65;5.25;;;6.60;99.90;;;;;;12372520;28;20053;-43
2021/03/23 08:31:48;;;;;;;11.38;5.60;;;6.80;99.90;;;;;;12372599;28;20880;-42
2021/03/23 08:37:59;;;;;;;9.02;5.68;;;6.80;99.90;;;;;;12364874;28;20054;-42
2021/03/23 08:44:00;;;;;;;14.70;6.28;;;6.80;99.90;;;;;;12359885;28;20104;-42
2021/03/23 08:50:29;;;;;;;11.45;6.30;;;7.10;99.90;;;;;;12358725;28;20547;-43
2021/03/23 08:56:47;;;;;;;10.43;5.70;;;7.40;99.90;;;;;;12365776;28;20054;-43
2021/03/23 09:02:49;;;;;;;14.30;7.60;;;7.60;99.90;;;;;;12367048;28;20557;-41
2021/03/23 09:09:11;;;;;;;11.15;7.07;;;7.60;99.90;;;;;;12367267;28;20062;-42
2021/03/23 09:15:16;;;;;;;15.95;8.30;;;7.60;99.90;;;;;;12368760;28;20073;-42
2021/03/23 09:21:18;;;;;;;12.93;7.93;;;7.60;99.90;;;;;;12371834;28;20056;-41
2021/03/23 09:27:25;;;;;;;17.98;9.77;;;8.00;99.90;;;;;;12375180;28;20072;-43
2021/03/23 09:33:26;;;;;;;13.80;9.85;;;8.00;99.90;;;;;;12379995;28;20165;-42
2021/03/23 09:39:31;;;;;;;16.02;9.82;;;8.60;99.90;;;;;;12372036;28;20054;-42
2021/03/23 09:45:48;;;;;;;17.38;10.18;;;8.80;99.90;;;;;;12363916;28;20053;-42
2021/03/23 09:52:03;;;;;;;18.98;11.25;;;8.80;99.90;;;;;;12365862;28;20049;-41
2021/03/23 09:58:05;;;;;;;20.75;12.88;;;9.10;99.90;;;;;;12375394;28;20065;-42
2021/03/23 10:04:06;;;;;;;18.88;12.32;;;9.00;99.90;;;;;;12377815;28;20116;-41
2021/03/23 10:10:36;;;;;;;27.52;14.10;;;8.70;99.90;;;;;;12371183;28;20065;-42
2021/03/23 10:16:40;;;;;;;29.23;16.80;;;8.70;99.90;;;;;;12374265;28;20939;-42
2021/03/23 10:22:52;;;;;;;26.70;15.52;;;9.10;99.90;;;;;;12376090;28;20046;-42
2021/03/23 10:28:55;;;;;;;28.33;16.00;;;9.40;99.90;;;;;;12378684;28;20053;-42
2021/03/23 10:35:20;;;;;;;25.33;15.60;;;10.00;99.90;;;;;;12371945;28;20100;-44
2021/03/23 10:41:24;;;;;;;29.98;16.77;;;10.20;99.90;;;;;;12379948;28;20074;-41
2021/03/23 10:47:35;;;;;;;33.55;18.08;;;10.10;99.90;;;;;;12371585;28;20050;-42
2021/03/23 10:53:37;;;;;;;26.48;16.90;;;9.80;99.90;;;;;;12372703;28;20070;-41
2021/03/23 10:59:39;;;;;;;29.70;17.35;;;9.90;99.90;;;;;;12374201;28;20050;-41
2021/03/23 11:05:49;;;;;;;27.15;18.02;;;10.20;99.90;;;;;;12369620;28;20099;-43
2021/03/23 11:11:50;;;;;;;33.40;18.83;;;10.50;99.90;;;;;;12367207;28;20176;-43
2021/03/23 11:17:53;;;;;;;31.95;19.38;;;10.20;99.90;;;;;;12374768;28;20050;-41
2021/03/23 11:23:56;;;;;;;34.65;19.50;;;10.00;99.90;;;;;;12373014;28;20049;-41
2021/03/23 11:29:58;;;;;;;29.17;19.27;;;10.60;99.90;;;;;;12371384;28;20046;-42
2021/03/23 11:36:01;;;;;;;34.50;18.77;;;11.00;99.90;;;;;;12372490;28;20051;-42
2021/03/23 11:42:16;;;;;;;32.42;19.65;;;11.20;99.90;;;;;;12377515;28;20050;-43
2021/03/23 11:48:18;;;;;;;33.55;18.65;;;11.30;99.90;;;;;;12372951;28;20081;-41
2021/03/23 11:54:20;;;;;;;35.40;19.55;;;10.90;99.90;;;;;;12371018;28;20053;-43
2021/03/23 12:00:30;;;;;;;31.45;20.63;;;10.90;99.90;;;;;;12361940;28;20050;-42
2021/03/23 12:06:45;;;;;;;29.58;19.70;;;10.90;99.90;;;;;;12361738;28;20482;-41
2021/03/23 12:12:58;;;;;;;36.90;20.08;;;10.80;99.90;;;;;;12370919;28;20038;-41
2021/03/23 12:19:04;;;;;;;30.00;19.33;;;10.70;99.90;;;;;;12375640;28;20078;-41
2021/03/23 12:25:07;;;;;;;31.73;18.73;;;10.90;99.90;;;;;;12374207;28;20680;-41
2021/03/23 12:31:09;;;;;;;33.40;18.92;;;10.90;99.90;;;;;;12362386;28;20479;-42
2021/03/23 12:37:11;;;;;;;33.47;20.60;;;11.10;99.90;;;;;;12366273;28;20047;-43
2021/03/23 12:43:27;;;;;;;35.95;19.67;;;10.90;99.90;;;;;;12360295;28;20058;-43
2021/03/23 12:49:28;;;;;;;29.83;20.00;;;11.00;99.90;;;;;;12371385;28;20046;-41
2021/03/23 12:55:32;;;;;;;30.75;19.20;;;11.10;99.90;;;;;;12364786;28;20050;-41
2021/03/23 13:01:33;;;;;;;32.17;19.23;;;11.00;99.90;;;;;;12377170;28;20064;-42
2021/03/23 13:07:39;;;;;;;34.15;20.27;;;11.20;99.90;;;;;;12374965;28;20343;-41
2021/03/23 13:13:49;;;;;;;32.92;19.83;;;11.20;99.90;;;;;;12377628;28;20409;-41
2021/03/23 13:19:51;;;;;;;31.15;20.20;;;11.30;99.90;;;;;;12371052;28;20095;-43
2021/03/23 13:26:02;;;;;;;29.30;19.45;;;11.40;99.90;;;;;;12373804;28;20137;-41
2021/03/23 13:32:03;;;;;;;29.23;19.50;;;11.40;99.90;;;;;;12381872;28;20637;-42
2021/03/23 13:38:12;;;;;;;31.73;19.92;;;11.30;99.90;;;;;;12375576;28;20058;-41
2021/03/23 13:44:50;;;;;;;34.33;21.33;;;11.40;99.90;;;;;;12380500;28;20108;-42
2021/03/23 13:50:57;;;;;;;32.00;20.40;;;10.90;99.90;;;;;;12383594;28;20561;-42
2021/03/23 13:56:59;;;;;;;35.80;21.48;;;11.10;99.90;;;;;;12365069;28;20072;-42
2021/03/23 14:03:01;;;;;;;33.28;20.55;;;11.10;99.90;;;;;;12375942;28;20077;-41
2021/03/23 14:09:05;;;;;;;30.85;20.60;;;11.20;99.90;;;;;;12374399;28;20911;-42
2021/03/23 14:15:07;;;;;;;27.73;18.95;;;11.20;99.90;;;;;;12370836;28;20046;-41
2021/03/23 14:21:13;;;;;;;27.58;18.48;;;11.60;99.90;;;;;;12375495;28;20042;-41
2021/03/23 14:27:15;;;;;;;24.95;18.00;;;11.60;99.90;;;;;;12377350;28;20545;-41
2021/03/23 14:33:18;;;;;;;33.85;19.40;;;11.90;99.90;;;;;;12374035;28;20046;-41
2021/03/23 14:39:56;;;;;;;29.60;18.73;;;12.00;99.90;;;;;;12378606;28;20224;-43
2021/03/23 14:45:58;;;;;;;30.80;20.13;;;12.00;99.90;;;;;;12369297;28;20115;-42
2021/03/23 14:51:59;;;;;;;29.33;19.25;;;12.00;99.90;;;;;;12374842;28;20073;-41
2021/03/23 14:58:01;;;;;;;29.10;20.30;;;12.10;99.90;;;;;;12371766;28;20047;-42
2021/03/23 15:04:03;;;;;;;26.67;19.17;;;12.20;99.90;;;;;;12375007;28;20095;-42
2021/03/23 15:10:07;;;;;;;33.60;20.67;;;11.70;99.90;;;;;;12369308;28;20055;-43
2021/03/23 15:16:10;;;;;;;31.15;20.08;;;11.50;99.90;;;;;;12376334;28;20046;-44
2021/03/23 15:22:23;;;;;;;31.27;20.67;;;11.50;99.90;;;;;;12360571;28;20550;-43
2021/03/23 15:28:26;;;;;;;32.95;21.05;;;11.70;99.90;;;;;;12371382;28;20196;-42
2021/03/23 15:34:27;;;;;;;31.27;21.20;;;11.40;99.90;;;;;;12367394;28;20046;-42
2021/03/23 15:40:29;;;;;;;32.45;20.80;;;11.50;99.90;;;;;;12370304;28;20073;-42
2021/03/23 15:46:31;;;;;;;27.38;20.02;;;11.40;99.90;;;;;;12369916;28;20049;-42
2021/03/23 15:52:32;;;;;;;30.83;19.85;;;11.40;99.90;;;;;;12369610;28;20062;-41
2021/03/23 15:58:34;;;;;;;31.92;19.13;;;11.20;99.90;;;;;;12368028;28;20380;-41
2021/03/23 16:04:36;;;;;;;27.10;19.10;;;11.20;99.90;;;;;;12366094;28;20043;-42
2021/03/23 16:10:42;;;;;;;29.75;18.67;;;11.30;99.90;;;;;;12372213;28;20161;-42
2021/03/23 16:16:44;;;;;;;30.13;19.17;;;11.20;99.90;;;;;;12372560;28;20089;-41
2021/03/23 16:22:47;;;;;;;25.75;18.48;;;11.20;99.90;;;;;;12364732;28;20084;-42
2021/03/23 16:28:50;;;;;;;30.65;19.52;;;11.30;99.90;;;;;;12366820;28;20144;-41
2021/03/23 16:34:51;;;;;;;28.17;18.92;;;11.20;99.90;;;;;;12365695;28;20166;-41
2021/03/23 16:40:53;;;;;;;30.88;19.40;;;11.30;99.90;;;;;;12371904;28;20042;-41
2021/03/23 16:46:55;;;;;;;27.85;18.95;;;11.20;99.90;;;;;;12372908;28;20700;-41
2021/03/23 16:52:57;;;;;;;36.70;21.85;;;11.10;99.90;;;;;;12368438;28;20070;-41
2021/03/23 16:58:59;;;;;;;32.75;21.23;;;11.10;99.90;;;;;;12355691;28;20054;-42
2021/03/23 17:05:00;;;;;;;33.13;20.10;;;11.10;99.90;;;;;;12358321;28;20108;-41
2021/03/23 17:11:02;;;;;;;31.88;21.67;;;11.00;99.90;;;;;;12364551;28;20037;-44
2021/03/23 17:17:03;;;;;;;35.08;21.98;;;10.80;99.90;;;;;;12363805;28;20045;-41
2021/03/23 17:23:07;;;;;;;36.15;23.00;;;10.60;99.90;;;;;;12362005;28;20043;-42
2021/03/23 17:29:09;;;;;;;;;;;10.00;99.90;;;;;;12362002;28;20056;-41
2021/03/23 17:35:11;;;;;;;39.45;26.05;;;9.30;99.90;;;;;;12368609;28;19958;-43
2021/03/23 17:41:13;;;;;;;38.72;24.80;;;9.00;99.90;;;;;;12380558;28;20058;-42
2021/03/23 17:47:15;;;;;;;39.42;24.13;;;8.60;99.90;;;;;;12379122;28;20150;-43
2021/03/23 17:53:17;;;;;;;37.45;25.77;;;8.20;99.90;;;;;;12377146;28;20038;-41
2021/03/23 17:59:18;;;;;;;38.35;24.33;;;8.00;99.90;;;;;;12376050;28;20054;-41
2021/03/23 18:05:22;;;;;;;40.90;26.42;;;7.80;99.90;;;;;;12373137;28;20049;-42
2021/03/23 18:11:23;;;;;;;47.37;29.07;;;7.60;99.90;;;;;;12373911;28;20441;-42
2021/03/23 18:17:25;;;;;;;43.63;27.55;;;7.40;99.90;;;;;;12368451;28;20125;-42
2021/03/23 18:23:27;;;;;;;44.88;27.50;;;7.30;99.90;;;;;;12361553;28;20069;-41
2021/03/23 18:29:28;;;;;;;48.50;29.55;;;7.10;99.90;;;;;;12375348;28;20057;-41
2021/03/23 18:35:32;;;;;;;50.17;30.33;;;7.00;99.90;;;;;;12374074;28;20050;-42
2021/03/23 18:41:34;;;;;;;47.35;30.70;;;7.00;99.90;;;;;;12369690;28;20468;-41
2021/03/23 18:47:36;;;;;;;56.88;32.72;;;6.90;99.90;;;;;;12370155;28;20177;-41
2021/03/23 18:53:38;;;;;;;52.28;31.48;;;6.80;99.90;;;;;;12374251;28;20053;-42
2021/03/23 18:59:39;;;;;;;61.33;34.40;;;6.80;99.90;;;;;;12366115;28;20084;-41
2021/03/23 19:05:41;;;;;;;58.58;32.20;;;6.70;99.90;;;;;;12375710;28;20050;-44
2021/03/23 19:11:42;;;;;;;68.30;36.60;;;6.60;99.90;;;;;;12358829;28;20057;-42
2021/03/23 19:17:44;;;;;;;66.22;36.47;;;6.50;99.90;;;;;;12373995;28;20103;-43
2021/03/23 19:23:48;;;;;;;60.88;38.08;;;6.40;99.90;;;;;;12369161;28;20043;-41
2021/03/23 19:29:50;;;;;;;64.55;37.85;;;6.30;99.90;;;;;;12375469;28;20907;-42
2021/03/23 19:35:51;;;;;;;64.00;38.13;;;6.30;99.90;;;;;;12373274;28;20517;-41
2021/03/23 19:41:53;;;;;;;71.88;39.00;;;6.20;99.90;;;;;;12355469;28;20057;-41
2021/03/23 19:47:54;;;;;;;65.72;38.78;;;6.20;99.90;;;;;;12365832;28;20050;-41
2021/03/23 19:53:56;;;;;;;72.15;37.47;;;6.20;99.90;;;;;;12360587;28;20712;-41
2021/03/23 19:59:57;;;;;;;67.95;37.92;;;6.30;99.90;;;;;;12371846;28;20042;-41
2021/03/23 20:05:59;;;;;;;66.18;36.55;;;6.20;99.90;;;;;;12362329;28;20042;-41
2021/03/23 20:12:02;;;;;;;75.50;39.75;;;6.00;99.90;;;;;;12370789;28;20095;-41
2021/03/23 20:18:05;;;;;;;74.03;40.60;;;6.10;99.90;;;;;;12370104;28;20091;-42
2021/03/23 20:24:09;;;;;;;77.47;40.33;;;6.00;99.90;;;;;;12369134;28;20133;-42
2021/03/23 20:30:13;;;;;;;75.82;40.85;;;5.90;99.90;;;;;;12367035;28;20042;-42
2021/03/23 20:36:17;;;;;;;73.22;39.13;;;5.80;99.90;;;;;;12368030;28;20136;-43
2021/03/23 20:42:18;;;;;;;79.05;39.53;;;5.80;99.90;;;;;;12375385;28;20138;-40
2021/03/23 20:48:21;;;;;;;75.70;37.83;;;5.60;99.90;;;;;;12367365;28;20628;-41
2021/03/23 20:54:23;;;;;;;78.32;38.08;;;5.40;99.90;;;;;;12361348;28;20806;-41
2021/03/23 21:00:28;;;;;;;70.60;36.83;;;5.30;99.90;;;;;;12357362;28;20076;-41
2021/03/23 21:06:29;;;;;;;76.38;38.50;;;5.30;99.90;;;;;;12360847;28;20046;-44
2021/03/23 21:12:31;;;;;;;75.45;37.53;;;5.20;99.90;;;;;;12379926;28;20100;-41
2021/03/23 21:18:33;;;;;;;80.30;38.85;;;5.00;99.90;;;;;;12383948;28;20483;-41
2021/03/23 21:24:34;;;;;;;74.65;37.83;;;4.90;99.90;;;;;;12381094;28;20321;-41
2021/03/23 21:30:37;;;;;;;72.75;37.60;;;4.80;99.90;;;;;;12379060;28;20132;-41
2021/03/23 21:36:39;;;;;;;84.75;40.08;;;4.80;99.90;;;;;;12370025;28;20126;-41
2021/03/23 21:42:41;;;;;;;88.38;38.05;;;4.90;99.90;;;;;;12377245;28;20054;-41
2021/03/23 21:48:42;;;;;;;75.93;38.75;;;4.90;99.90;;;;;;12375856;28;20068;-42
2021/03/23 21:54:44;;;;;;;82.25;38.47;;;4.80;99.90;;;;;;12376219;28;20050;-41
2021/03/23 22:00:47;;;;;;;81.53;36.13;;;5.00;99.90;;;;;;12376398;28;20136;-41
2021/03/23 22:06:50;;;;;;;78.65;36.47;;;4.90;99.90;;;;;;12370325;28;20121;-43
2021/03/23 22:12:52;;;;;;;81.33;37.43;;;5.00;99.90;;;;;;12370862;28;20046;-41
2021/03/23 22:18:54;;;;;;;74.68;35.97;;;4.90;99.90;;;;;;12374033;28;20050;-43
2021/03/23 22:24:55;;;;;;;80.00;37.53;;;4.80;99.90;;;;;;12378566;28;20054;-41
2021/03/23 22:30:56;;;;;;;87.13;39.78;;;4.90;99.90;;;;;;12371957;28;20580;-41
2021/03/23 22:36:58;;;;;;;77.68;37.08;;;4.90;99.90;;;;;;12370971;28;20062;-43
2021/03/23 22:42:59;;;;;;;87.60;38.97;;;4.90;99.90;;;;;;12371536;28;20077;-41
2021/03/23 22:49:00;;;;;;;75.85;37.55;;;4.90;99.90;;;;;;12377911;28;20058;-41
2021/03/23 22:55:03;;;;;;;77.90;38.17;;;4.90;99.90;;;;;;12366992;28;20065;-44
2021/03/23 23:01:06;;;;;;;76.55;37.53;;;4.90;99.90;;;;;;12375373;28;20164;-42
2021/03/23 23:07:08;;;;;;;80.65;36.88;;;4.90;99.90;;;;;;12366479;28;20120;-42
2021/03/23 23:13:13;;;;;;;82.25;39.75;;;4.90;99.90;;;;;;12373310;28;20481;-41
2021/03/23 23:19:20;;;;;;;79.68;38.13;;;4.90;99.90;;;;;;12364194;28;20092;-41
2021/03/23 23:25:22;;;;;;;86.70;40.35;;;4.80;99.90;;;;;;12365462;28;20210;-42
2021/03/23 23:31:30;;;;;;;79.18;39.20;;;4.70;99.90;;;;;;12368273;28;20133;-41
2021/03/23 23:37:31;;;;;;;88.05;38.60;;;4.60;99.90;;;;;;12373170;28;20050;-42
2021/03/23 23:43:33;;;;;;;83.38;39.03;;;4.60;99.90;;;;;;12368254;28;20050;-41
2021/03/23 23:49:35;;;;;;;76.22;37.13;;;4.70;99.90;;;;;;12369312;28;20084;-42
2021/03/23 23:55:36;;;;;;;83.47;39.30;;;4.70;99.90;;;;;;12369662;28;20081;-41
